Time;durP1;ratioP1;P1;durP2;ratioP2;P2;SDS_P1;SDS_P2;PMS_P1;PMS_P2;Temp;Humidity;BMP_temperature;BMP_pressure;BME280_temperature;BME280_humidity;BME280_pressure;Samples;Min_cycle;Max_cycle;Signal;HPM_P1;HPM_P2
2021/05/15 00:01:07;;;;;;;10.45;7.00;;;10.50;99.90;;;;;;5006031;28;20072;-78
2021/05/15 00:03:34;;;;;;;15.55;7.88;;;10.40;99.90;;;;;;5007036;28;20090;-78
2021/05/15 00:06:00;;;;;;;8.85;6.20;;;10.40;99.90;;;;;;4989445;28;20109;-78
2021/05/15 00:08:25;;;;;;;11.75;8.77;;;10.30;99.90;;;;;;5044059;23;20049;-78
2021/05/15 00:10:51;;;;;;;18.25;10.50;;;10.20;99.90;;;;;;5029285;28;20123;-78
2021/05/15 00:13:17;;;;;;;17.27;8.60;;;10.20;99.90;;;;;;5012326;28;20097;-78
2021/05/15 00:15:43;;;;;;;13.40;9.70;;;10.10;99.90;;;;;;5046866;28;20053;-78
2021/05/15 00:18:09;;;;;;;12.90;7.80;;;10.00;99.90;;;;;;5028977;28;20060;-79
2021/05/15 00:20:34;;;;;;;12.82;9.15;;;9.90;99.90;;;;;;5046679;28;20026;-79
2021/05/15 00:23:00;;;;;;;15.32;8.40;;;10.00;99.90;;;;;;5046575;28;20125;-78
2021/05/15 00:25:26;;;;;;;15.43;9.30;;;9.90;99.90;;;;;;5009307;28;20022;-79
2021/05/15 00:27:51;;;;;;;16.85;10.32;;;9.80;99.90;;;;;;5009106;28;20033;-79
2021/05/15 00:30:17;;;;;;;16.02;11.10;;;9.70;99.90;;;;;;4993084;28;20032;-79
2021/05/15 00:32:44;;;;;;;17.80;10.40;;;9.70;99.90;;;;;;4992813;28;20037;-78
2021/05/15 00:35:10;;;;;;;15.93;9.38;;;9.60;99.90;;;;;;5008981;28;20034;-79
2021/05/15 00:37:36;;;;;;;15.60;9.43;;;9.70;99.90;;;;;;5008559;28;20030;-79
2021/05/15 00:40:05;;;;;;;14.65;8.57;;;9.50;99.90;;;;;;5008497;28;20136;-78
2021/05/15 00:42:32;;;;;;;15.63;10.48;;;9.40;99.90;;;;;;5008656;28;20046;-79
2021/05/15 00:44:58;;;;;;;16.92;10.48;;;9.40;99.90;;;;;;5024789;28;20037;-78
2021/05/15 00:47:24;;;;;;;14.30;10.32;;;9.40;99.90;;;;;;5008524;28;20057;-78
2021/05/15 00:49:52;;;;;;;17.20;10.48;;;9.40;99.90;;;;;;5011789;28;20038;-79
2021/05/15 00:52:19;;;;;;;16.50;10.50;;;9.40;99.90;;;;;;5024705;28;20045;-78
2021/05/15 00:54:46;;;;;;;14.90;9.32;;;9.30;99.90;;;;;;5024822;28;20076;-79
2021/05/15 00:57:13;;;;;;;15.18;9.75;;;9.30;99.90;;;;;;5024915;28;20053;-79
2021/05/15 00:59:40;;;;;;;14.82;9.68;;;9.30;99.90;;;;;;5024685;28;20069;-78
2021/05/15 01:02:08;;;;;;;18.60;9.68;;;9.20;99.90;;;;;;5024062;28;20029;-78
2021/05/15 01:04:37;;;;;;;15.48;8.90;;;9.20;99.90;;;;;;5024525;28;20053;-78
2021/05/15 01:07:05;;;;;;;14.38;9.45;;;9.20;99.90;;;;;;5008335;28;20065;-78
2021/05/15 01:09:31;;;;;;;18.77;10.05;;;9.00;99.90;;;;;;5024503;28;20042;-78
2021/05/15 01:11:57;;;;;;;15.07;10.07;;;8.90;99.90;;;;;;5008214;28;20089;-78
2021/05/15 01:14:23;;;;;;;18.05;10.00;;;8.90;99.90;;;;;;5025516;28;20030;-78
2021/05/15 01:16:49;;;;;;;16.00;9.50;;;8.90;99.90;;;;;;5008048;28;20489;-77
2021/05/15 01:19:16;;;;;;;18.65;10.57;;;8.90;99.90;;;;;;5024447;28;20371;-79
2021/05/15 01:21:41;;;;;;;14.68;10.35;;;8.90;99.90;;;;;;5024297;28;20125;-78
2021/05/15 01:24:08;;;;;;;16.45;9.90;;;8.90;99.90;;;;;;5028618;28;20398;-78
2021/05/15 01:26:34;;;;;;;17.08;10.85;;;8.90;99.90;;;;;;5045418;28;20056;-78
2021/05/15 01:29:03;;;;;;;13.10;9.57;;;8.80;99.90;;;;;;5027666;28;20045;-78
2021/05/15 01:31:30;;;;;;;15.57;9.65;;;8.80;99.90;;;;;;5045326;28;20053;-78
2021/05/15 01:33:57;;;;;;;17.27;10.45;;;8.70;99.90;;;;;;5011058;28;20037;-78
2021/05/15 01:36:23;;;;;;;16.70;10.30;;;8.60;99.90;;;;;;5045052;28;20052;-78
2021/05/15 01:38:49;;;;;;;16.05;9.85;;;8.60;99.90;;;;;;5027257;28;20049;-78
2021/05/15 01:41:17;;;;;;;15.75;10.13;;;8.60;99.90;;;;;;5027489;28;20462;-78
2021/05/15 01:43:43;;;;;;;18.08;9.85;;;8.60;99.90;;;;;;5027428;28;20037;-79
2021/05/15 01:46:10;;;;;;;14.80;9.18;;;8.60;99.90;;;;;;5027226;28;20032;-78
2021/05/15 01:48:37;;;;;;;15.07;9.20;;;8.60;99.90;;;;;;5027447;28;20125;-79
2021/05/15 01:51:11;;;;;;;17.35;10.27;;;8.60;99.90;;;;;;5027458;28;20041;-79
2021/05/15 01:53:39;;;;;;;15.75;9.63;;;8.60;99.90;;;;;;5011753;28;20029;-79
2021/05/15 01:56:08;;;;;;;14.60;9.18;;;8.50;99.90;;;;;;5027322;28;20034;-79
2021/05/15 01:58:35;;;;;;;15.77;9.85;;;8.50;99.90;;;;;;5027421;28;20108;-79
2021/05/15 02:01:00;;;;;;;18.63;10.05;;;8.40;99.90;;;;;;5027284;28;20025;-79
2021/05/15 02:03:26;;;;;;;17.42;11.02;;;8.30;99.90;;;;;;5010721;28;20036;-79
2021/05/15 02:09:08;;;;;;;13.82;8.55;;;8.40;99.90;;;;;;5004470;28;20101;-79
2021/05/15 02:11:35;;;;;;;18.35;10.57;;;8.40;99.90;;;;;;4988789;28;20430;-79
2021/05/15 02:14:02;;;;;;;14.93;9.23;;;8.30;99.90;;;;;;4992327;28;20041;-79
2021/05/15 02:16:28;;;;;;;15.77;10.18;;;8.20;99.90;;;;;;4992060;28;20402;-79
2021/05/15 02:18:53;;;;;;;22.08;10.15;;;8.10;99.90;;;;;;4976150;28;20093;-78
2021/05/15 02:21:22;;;;;;;15.10;10.35;;;8.00;99.90;;;;;;4975965;28;20033;-82
2021/05/15 02:23:48;;;;;;;15.20;9.60;;;8.10;99.90;;;;;;4991704;28;20060;-78
2021/05/15 02:26:13;;;;;;;17.08;10.00;;;8.00;99.90;;;;;;4991950;28;20031;-79
2021/05/15 02:28:39;;;;;;;16.30;9.45;;;7.90;99.90;;;;;;4975864;28;20433;-78
2021/05/15 02:31:04;;;;;;;18.98;10.18;;;8.00;99.90;;;;;;5009312;28;20033;-79
2021/05/15 02:33:30;;;;;;;14.95;10.00;;;8.10;99.90;;;;;;5009258;28;20035;-78
2021/05/15 02:35:56;;;;;;;17.27;10.02;;;8.10;99.90;;;;;;4991564;28;20073;-78
2021/05/15 02:38:22;;;;;;;18.92;10.18;;;8.30;99.90;;;;;;4991665;28;20556;-78
2021/05/15 02:40:47;;;;;;;18.63;10.02;;;8.30;99.90;;;;;;4975504;28;20121;-79
2021/05/15 02:43:14;;;;;;;16.60;10.13;;;8.30;99.90;;;;;;5008804;28;20082;-77
2021/05/15 02:45:40;;;;;;;17.60;9.35;;;8.40;99.90;;;;;;4991128;28;20044;-79
2021/05/15 02:48:06;;;;;;;19.15;9.93;;;8.40;99.90;;;;;;5008724;28;20026;-78
2021/05/15 02:50:32;;;;;;;15.10;10.20;;;8.50;99.90;;;;;;4991306;28;20494;-79
2021/05/15 02:52:57;;;;;;;16.75;9.55;;;8.60;99.90;;;;;;5008475;28;20041;-79
2021/05/15 02:55:24;;;;;;;16.27;10.02;;;8.60;99.90;;;;;;5008675;28;20045;-78
2021/05/15 02:57:51;;;;;;;18.35;10.57;;;8.60;99.90;;;;;;4990848;28;21924;-79
2021/05/15 03:00:25;;;;;;;20.08;10.80;;;8.60;99.90;;;;;;4991043;28;20034;-78
2021/05/15 03:02:52;;;;;;;16.50;9.55;;;8.70;99.90;;;;;;5008344;28;20046;-78
2021/05/15 03:05:22;;;;;;;15.77;10.23;;;8.80;99.90;;;;;;4991149;28;20041;-78
2021/05/15 03:07:48;;;;;;;17.48;9.80;;;8.70;99.90;;;;;;5007935;28;20406;-79
2021/05/15 03:10:15;;;;;;;18.67;10.15;;;8.80;99.90;;;;;;4990731;28;20489;-79
2021/05/15 03:12:41;;;;;;;16.90;10.15;;;8.90;99.90;;;;;;4990444;28;20038;-78
2021/05/15 03:15:12;;;;;;;15.73;9.80;;;8.80;99.90;;;;;;4990603;28;20103;-78
2021/05/15 03:17:39;;;;;;;18.23;10.95;;;8.80;99.90;;;;;;4974363;28;20065;-78
2021/05/15 03:20:06;;;;;;;20.52;9.80;;;8.80;99.90;;;;;;4990629;28;20030;-79
2021/05/15 03:22:32;;;;;;;17.25;9.93;;;8.80;99.90;;;;;;4974147;28;20084;-79
2021/05/15 03:24:58;;;;;;;16.10;10.15;;;8.80;99.90;;;;;;4969970;28;20030;-79
2021/05/15 03:27:23;;;;;;;18.95;9.82;;;8.80;99.90;;;;;;4988432;28;20023;-78
2021/05/15 03:29:49;;;;;;;16.17;10.02;;;8.80;99.90;;;;;;4988506;28;20027;-79
2021/05/15 03:32:15;;;;;;;17.40;10.25;;;8.80;99.90;;;;;;4986996;28;20539;-79
2021/05/15 03:34:40;;;;;;;17.88;10.00;;;8.90;99.90;;;;;;4987128;28;20038;-78
2021/05/15 03:37:06;;;;;;;16.17;10.57;;;8.90;99.90;;;;;;4986779;28;20104;-79
2021/05/15 03:39:32;;;;;;;17.20;10.02;;;8.90;99.90;;;;;;4987107;28;20043;-78
2021/05/15 03:41:57;;;;;;;16.85;9.73;;;8.90;99.90;;;;;;4986817;28;20035;-78
2021/05/15 03:44:23;;;;;;;16.50;10.45;;;8.90;99.90;;;;;;4970866;28;20042;-78
2021/05/15 03:46:49;;;;;;;18.45;9.88;;;8.90;99.90;;;;;;4986736;28;20031;-78
2021/05/15 03:49:15;;;;;;;16.80;10.35;;;8.90;99.90;;;;;;4988443;28;20094;-78
2021/05/15 03:51:41;;;;;;;19.15;10.50;;;8.90;99.90;;;;;;4973847;28;20035;-78
2021/05/15 03:54:07;;;;;;;19.02;11.45;;;8.90;99.90;;;;;;4990048;28;20030;-78
2021/05/15 03:56:33;;;;;;;19.40;10.65;;;8.90;99.90;;;;;;5007080;28;20121;-78
2021/05/15 03:58:58;;;;;;;21.73;11.75;;;8.80;99.90;;;;;;5007313;28;20038;-78
2021/05/15 04:01:24;;;;;;;17.60;11.05;;;8.90;99.90;;;;;;4989625;28;20030;-78
2021/05/15 04:03:50;;;;;;;16.58;9.88;;;8.90;99.90;;;;;;5007223;28;20034;-78
2021/05/15 04:06:16;;;;;;;16.10;10.00;;;9.00;99.90;;;;;;4973459;28;20098;-78
2021/05/15 04:08:42;;;;;;;18.15;10.75;;;9.00;99.90;;;;;;5007100;28;20047;-78
2021/05/15 04:11:08;;;;;;;17.88;10.23;;;9.00;99.90;;;;;;5005825;28;20042;-78
2021/05/15 04:16:31;;;;;;;18.48;11.23;;;8.90;99.90;;;;;;5006825;28;20041;-78
2021/05/15 04:18:57;;;;;;;18.10;10.57;;;8.90;99.90;;;;;;5005254;28;20045;-78
2021/05/15 04:21:22;;;;;;;14.35;10.20;;;8.90;99.90;;;;;;5005274;28;20034;-78
2021/05/15 04:23:48;;;;;;;17.80;10.20;;;8.90;99.90;;;;;;4988777;28;20035;-78
2021/05/15 04:26:13;;;;;;;19.60;11.73;;;8.90;99.90;;;;;;4972624;28;20471;-78
2021/05/15 04:28:39;;;;;;;18.45;10.10;;;9.00;99.90;;;;;;4989087;28;20295;-78
2021/05/15 04:31:05;;;;;;;20.90;10.23;;;9.00;99.90;;;;;;4972624;28;20098;-78
2021/05/15 04:33:31;;;;;;;17.00;10.50;;;9.00;99.90;;;;;;4988617;28;20471;-78
2021/05/15 04:35:57;;;;;;;20.02;11.60;;;9.00;99.90;;;;;;4988394;28;20033;-78
2021/05/15 04:38:23;;;;;;;16.70;9.98;;;9.10;99.90;;;;;;4988644;28;20060;-78
2021/05/15 04:40:49;;;;;;;18.70;11.18;;;9.20;99.90;;;;;;4972597;28;20054;-78
2021/05/15 04:43:15;;;;;;;15.57;9.68;;;9.20;99.90;;;;;;4972173;28;20034;-78
2021/05/15 04:45:42;;;;;;;19.73;11.35;;;9.20;99.90;;;;;;5006039;28;20034;-78
2021/05/15 04:48:09;;;;;;;18.20;10.45;;;9.20;99.90;;;;;;4988448;28;20089;-78
2021/05/15 04:50:35;;;;;;;18.13;11.02;;;9.30;99.90;;;;;;4988330;28;20034;-78
2021/05/15 04:53:01;;;;;;;19.33;11.38;;;9.20;99.90;;;;;;4988191;28;20026;-78
2021/05/15 04:55:26;;;;;;;21.58;11.20;;;9.30;99.90;;;;;;4988393;28;20113;-78
2021/05/15 04:57:52;;;;;;;19.20;11.32;;;9.40;99.90;;;;;;5004408;28;20471;-78
2021/05/15 05:00:18;;;;;;;23.45;10.90;;;9.40;99.90;;;;;;4988459;28;20053;-78
2021/05/15 05:02:44;;;;;;;20.75;11.95;;;9.40;99.90;;;;;;5005678;28;20094;-78
2021/05/15 05:05:09;;;;;;;20.77;12.30;;;9.40;99.90;;;;;;4988392;28;20053;-78
2021/05/15 05:07:35;;;;;;;20.35;11.90;;;9.50;99.90;;;;;;5004041;28;20078;-78
2021/05/15 05:10:00;;;;;;;18.73;11.75;;;9.50;99.90;;;;;;4988251;28;20557;-78
2021/05/15 05:12:26;;;;;;;20.17;12.18;;;9.50;99.90;;;;;;4987897;28;20034;-78
2021/05/15 05:14:52;;;;;;;24.88;14.75;;;9.60;99.90;;;;;;4988216;28;20390;-78
2021/05/15 05:17:17;;;;;;;22.05;14.27;;;9.60;99.90;;;;;;4987982;28;20033;-78
2021/05/15 05:19:43;;;;;;;28.67;16.83;;;9.70;99.90;;;;;;4988067;28;20070;-78
2021/05/15 05:22:09;;;;;;;29.33;16.67;;;9.70;99.90;;;;;;5005452;28;20034;-78
2021/05/15 05:24:34;;;;;;;27.90;17.50;;;9.80;99.90;;;;;;4984663;28;20029;-78
2021/05/15 05:27:03;;;;;;;25.50;16.63;;;9.90;99.90;;;;;;4968354;28;20062;-78
2021/05/15 05:29:29;;;;;;;27.50;18.35;;;9.90;99.90;;;;;;4968559;28;20037;-78
2021/05/15 05:31:55;;;;;;;30.98;19.73;;;10.00;99.90;;;;;;4985941;28;20031;-78
2021/05/15 05:34:20;;;;;;;34.38;21.02;;;10.10;99.90;;;;;;4968621;28;20030;-78
2021/05/15 05:36:48;;;;;;;31.88;20.98;;;10.10;99.90;;;;;;4968273;28;20035;-78
2021/05/15 05:39:19;;;;;;;33.45;21.20;;;10.10;99.90;;;;;;4968270;28;20384;-78
2021/05/15 05:41:46;;;;;;;31.67;19.67;;;10.20;99.90;;;;;;4968591;28;20425;-78
2021/05/15 05:44:12;;;;;;;31.70;21.38;;;10.20;99.90;;;;;;4952175;28;20111;-78
2021/05/15 05:46:38;;;;;;;28.05;19.40;;;10.30;99.90;;;;;;4952896;28;20051;-78
2021/05/15 05:49:03;;;;;;;33.50;20.90;;;10.30;99.90;;;;;;4972364;28;20094;-78
2021/05/15 05:51:29;;;;;;;35.90;22.88;;;10.40;99.90;;;;;;5007893;28;20222;-78
2021/05/15 05:53:55;;;;;;;35.85;23.20;;;10.40;99.90;;;;;;5007499;28;20026;-78
2021/05/15 05:56:21;;;;;;;33.90;21.83;;;10.40;99.90;;;;;;5009108;28;20028;-78
2021/05/15 05:58:47;;;;;;;38.17;22.75;;;10.50;99.90;;;;;;4990863;28;20131;-78
2021/05/15 06:01:14;;;;;;;38.53;24.00;;;10.50;99.90;;;;;;4991533;28;20034;-78
2021/05/15 06:03:40;;;;;;;42.13;25.73;;;10.50;99.90;;;;;;5008708;28;20064;-78
2021/05/15 06:06:06;;;;;;;48.38;28.27;;;10.50;99.90;;;;;;5008625;28;20050;-79
2021/05/15 06:08:32;;;;;;;45.45;27.40;;;10.60;99.90;;;;;;4991060;28;20142;-79
2021/05/15 06:10:58;;;;;;;41.30;23.48;;;10.60;99.90;;;;;;5007691;28;20034;-78
2021/05/15 06:13:24;;;;;;;47.05;28.00;;;10.60;99.90;;;;;;4991140;28;20030;-79
2021/05/15 06:15:50;;;;;;;47.75;28.67;;;10.60;99.90;;;;;;4991283;28;20042;-79
2021/05/15 06:18:16;;;;;;;45.58;27.35;;;10.60;99.90;;;;;;4990961;28;20038;-79
2021/05/15 06:20:42;;;;;;;45.97;28.85;;;10.60;99.90;;;;;;5008546;28;20027;-78
2021/05/15 06:23:07;;;;;;;41.45;25.38;;;10.60;99.90;;;;;;4974903;28;20367;-78
2021/05/15 06:25:33;;;;;;;41.22;25.67;;;10.70;99.90;;;;;;4976665;28;20086;-78
2021/05/15 06:27:58;;;;;;;40.95;26.25;;;10.70;99.90;;;;;;4971620;28;20479;-79
2021/05/15 06:30:24;;;;;;;37.88;23.70;;;10.70;99.90;;;;;;4988744;28;20038;-79
2021/05/15 06:32:50;;;;;;;42.08;26.13;;;10.80;99.90;;;;;;4971387;28;20030;-79
2021/05/15 06:35:16;;;;;;;40.65;26.20;;;10.90;99.90;;;;;;4971676;28;20038;-78
2021/05/15 06:37:41;;;;;;;42.20;27.55;;;10.90;99.90;;;;;;4988718;28;20030;-78
2021/05/15 06:40:09;;;;;;;43.70;27.52;;;11.00;99.90;;;;;;4988825;28;20039;-79
2021/05/15 06:42:35;;;;;;;38.15;23.02;;;11.10;99.90;;;;;;4988857;28;20098;-79
2021/05/15 06:45:01;;;;;;;42.17;26.10;;;11.20;99.90;;;;;;4971157;28;20102;-78
2021/05/15 06:47:26;;;;;;;44.28;27.17;;;11.30;99.90;;;;;;4971440;28;20041;-78
2021/05/15 06:49:52;;;;;;;38.70;24.35;;;11.30;99.90;;;;;;4995508;28;20029;-78
2021/05/15 06:52:18;;;;;;;39.88;24.90;;;11.10;99.90;;;;;;4990635;28;20034;-78
2021/05/15 06:54:44;;;;;;;38.90;23.15;;;11.10;99.90;;;;;;5008102;28;20597;-78
2021/05/15 06:57:10;;;;;;;39.67;24.13;;;11.10;99.90;;;;;;4990560;28;20248;-78
2021/05/15 06:59:36;;;;;;;41.85;26.42;;;11.10;99.90;;;;;;4990278;28;20206;-79
2021/05/15 07:02:03;;;;;;;36.80;23.25;;;11.00;99.90;;;;;;4990358;28;20174;-78
2021/05/15 07:04:29;;;;;;;36.40;21.88;;;11.10;99.90;;;;;;4990501;28;20067;-78
2021/05/15 07:06:54;;;;;;;44.22;24.98;;;11.00;99.90;;;;;;4981408;28;20054;-78
2021/05/15 07:09:20;;;;;;;40.58;26.67;;;11.10;99.90;;;;;;4970933;28;20502;-78
2021/05/15 07:11:46;;;;;;;34.85;21.77;;;11.30;99.90;;;;;;4970768;28;20039;-78
2021/05/15 07:14:12;;;;;;;40.78;25.48;;;11.40;99.90;;;;;;4970611;28;20041;-78
2021/05/15 07:16:37;;;;;;;42.40;25.33;;;11.40;99.90;;;;;;4970526;28;20030;-78
2021/05/15 07:19:03;;;;;;;40.30;25.02;;;11.50;99.90;;;;;;4970554;28;20039;-79
2021/05/15 07:21:29;;;;;;;41.28;24.58;;;11.50;99.90;;;;;;4970352;28;20023;-78
2021/05/15 07:23:55;;;;;;;42.88;26.88;;;11.50;99.90;;;;;;4989238;28;20095;-79
2021/05/15 07:26:21;;;;;;;49.55;29.55;;;11.40;99.90;;;;;;4989812;28;20034;-78
2021/05/15 07:28:46;;;;;;;49.25;29.10;;;11.20;99.90;;;;;;4989897;28;20074;-78
2021/05/15 07:31:12;;;;;;;55.95;32.28;;;11.30;99.90;;;;;;4989560;28;20026;-78
2021/05/15 07:33:38;;;;;;;48.65;30.08;;;11.40;99.90;;;;;;4973446;28;20034;-78
2021/05/15 07:36:04;;;;;;;51.95;30.50;;;11.70;99.90;;;;;;4996690;28;20023;-78
2021/05/15 07:38:30;;;;;;;50.53;29.45;;;11.90;99.90;;;;;;4995801;28;20097;-78
2021/05/15 07:40:57;;;;;;;40.05;24.88;;;11.80;99.90;;;;;;5013760;28;20031;-78
2021/05/15 07:43:25;;;;;;;42.63;24.95;;;12.10;99.90;;;;;;4983635;28;20054;-78
2021/05/15 07:45:52;;;;;;;44.42;25.75;;;12.10;99.90;;;;;;4965772;28;20034;-78
2021/05/15 07:48:17;;;;;;;39.65;24.30;;;12.30;99.90;;;;;;4979819;28;20458;-78
2021/05/15 07:50:43;;;;;;;31.60;19.30;;;12.50;99.90;;;;;;5002671;28;20050;-78
2021/05/15 07:53:09;;;;;;;40.28;24.85;;;12.70;99.90;;;;;;4969680;28;20082;-78
2021/05/15 07:55:34;;;;;;;36.45;21.80;;;12.60;99.90;;;;;;4987541;28;20034;-78
2021/05/15 07:58:00;;;;;;;44.38;25.92;;;12.80;99.90;;;;;;4969416;28;20047;-79
2021/05/15 08:00:26;;;;;;;44.33;26.40;;;12.30;99.90;;;;;;4969902;28;20101;-78
2021/05/15 08:02:51;;;;;;;42.58;27.40;;;12.30;99.90;;;;;;4969860;28;20030;-78
2021/05/15 08:05:17;;;;;;;39.67;24.60;;;12.80;99.90;;;;;;4969960;28;20034;-79
2021/05/15 08:07:43;;;;;;;40.88;24.05;;;12.50;99.90;;;;;;4969440;28;20047;-79
2021/05/15 08:10:10;;;;;;;39.75;23.40;;;13.00;99.90;;;;;;4968747;28;20119;-78
2021/05/15 08:12:36;;;;;;;36.97;21.90;;;13.30;99.90;;;;;;4969393;28;20026;-78
2021/05/15 08:15:05;;;;;;;43.33;26.15;;;13.30;99.90;;;;;;4969617;28;20042;-78
2021/05/15 08:17:33;;;;;;;35.33;21.92;;;12.80;99.90;;;;;;4953339;28;20042;-79
2021/05/15 08:20:00;;;;;;;32.22;19.55;;;12.80;99.90;;;;;;4969404;28;20093;-80
2021/05/15 08:22:26;;;;;;;32.45;20.20;;;12.70;99.90;;;;;;4969249;28;20026;-79
2021/05/15 08:24:51;;;;;;;32.38;19.67;;;12.40;99.90;;;;;;4977218;28;20050;-79
2021/05/15 08:27:17;;;;;;;35.15;20.67;;;12.40;99.90;;;;;;4993053;28;20030;-80
2021/05/15 08:29:43;;;;;;;33.05;20.33;;;12.30;99.90;;;;;;4972535;28;20081;-80
2021/05/15 08:32:08;;;;;;;34.50;21.63;;;12.40;99.90;;;;;;4988456;28;20548;-80
2021/05/15 08:34:34;;;;;;;31.08;20.25;;;12.10;99.90;;;;;;5004947;28;20026;-80
2021/05/15 08:37:00;;;;;;;38.22;21.67;;;12.30;99.90;;;;;;4988271;28;20034;-79
2021/05/15 08:39:25;;;;;;;39.20;24.25;;;12.30;99.90;;;;;;4988013;28;20057;-78
2021/05/15 08:41:51;;;;;;;33.88;20.98;;;12.50;99.90;;;;;;4988154;28;20030;-79
2021/05/15 08:44:23;;;;;;;37.35;21.63;;;12.60;99.90;;;;;;4987796;28;20030;-77
2021/05/15 08:46:51;;;;;;;34.97;21.88;;;12.80;99.90;;;;;;5005699;28;20105;-79
2021/05/15 08:49:21;;;;;;;30.58;19.05;;;13.00;99.90;;;;;;4971757;28;20034;-79
2021/05/15 08:51:49;;;;;;;29.63;18.98;;;13.20;99.90;;;;;;4988203;28;20100;-79
2021/05/15 08:54:15;;;;;;;28.38;17.83;;;13.60;99.90;;;;;;4988181;28;20042;-80
2021/05/15 08:56:42;;;;;;;30.23;19.38;;;14.20;99.90;;;;;;4988193;28;20030;-79
2021/05/15 08:59:08;;;;;;;31.40;20.13;;;14.20;99.90;;;;;;4988185;28;20061;-79
2021/05/15 09:01:34;;;;;;;27.75;19.00;;;14.10;99.90;;;;;;4987842;28;20022;-79
2021/05/15 09:04:00;;;;;;;24.70;17.52;;;14.10;99.90;;;;;;5003829;28;20101;-79
2021/05/15 09:06:26;;;;;;;26.75;17.52;;;13.90;99.90;;;;;;5005238;28;20436;-79
2021/05/15 09:08:51;;;;;;;33.30;22.23;;;13.40;99.90;;;;;;4987554;28;20066;-79
2021/05/15 09:11:17;;;;;;;30.92;20.30;;;13.30;99.90;;;;;;4987945;28;20145;-78
2021/05/15 09:13:52;;;;;;;30.05;20.48;;;13.70;99.90;;;;;;4987840;28;20038;-79
2021/05/15 09:16:17;;;;;;;25.38;18.35;;;13.40;99.90;;;;;;4965015;28;20031;-79
2021/05/15 09:18:43;;;;;;;25.48;17.83;;;13.10;99.90;;;;;;4995567;28;20042;-79
2021/05/15 09:21:15;;;;;;;29.17;19.92;;;13.20;99.90;;;;;;4977052;28;20031;-79
2021/05/15 09:23:45;;;;;;;27.08;18.38;;;13.30;99.90;;;;;;4952339;28;20038;-79
2021/05/15 09:26:23;;;;;;;29.67;20.10;;;13.30;99.90;;;;;;4971644;28;20097;-78
2021/05/15 09:28:54;;;;;;;26.40;19.23;;;13.30;99.90;;;;;;4987946;28;20085;-79
2021/05/15 09:31:40;;;;;;;29.50;19.83;;;13.40;99.90;;;;;;4987867;28;20069;-77
2021/05/15 09:34:08;;;;;;;25.83;17.63;;;13.30;99.90;;;;;;4987857;28;20046;-79
2021/05/15 09:36:43;;;;;;;28.23;18.63;;;13.50;99.90;;;;;;4987655;28;20030;-78
2021/05/15 09:39:22;;;;;;;29.13;20.42;;;13.80;99.90;;;;;;5005326;28;20057;-78
2021/05/15 09:41:52;;;;;;;34.43;22.03;;;13.70;99.90;;;;;;5005033;28;20019;-79
2021/05/15 09:44:26;;;;;;;31.90;22.63;;;13.60;99.90;;;;;;4987764;28;20649;-79
2021/05/15 09:46:52;;;;;;;25.48;18.17;;;13.70;99.90;;;;;;4987745;28;20438;-79
2021/05/15 09:49:23;;;;;;;29.25;18.90;;;13.90;99.90;;;;;;4987523;28;20039;-79
2021/05/15 09:51:58;;;;;;;25.20;18.25;;;14.00;99.90;;;;;;4971400;28;20034;-79
2021/05/15 09:54:32;;;;;;;24.27;17.15;;;14.30;99.90;;;;;;4987685;28;20030;-79
2021/05/15 09:57:06;;;;;;;22.83;15.10;;;14.50;99.90;;;;;;4987651;28;20030;-78
2021/05/15 09:59:43;;;;;;;20.88;13.38;;;15.00;99.90;;;;;;4986816;28;20062;-79
2021/05/15 10:02:27;;;;;;;19.63;13.73;;;15.30;99.90;;;;;;4986994;28;20034;-78
2021/05/15 10:04:53;;;;;;;18.85;12.00;;;15.70;99.90;;;;;;4999196;28;20049;-79
2021/05/15 10:07:26;;;;;;;20.23;13.88;;;16.00;99.90;;;;;;4986415;28;20490;-79
2021/05/15 10:09:52;;;;;;;17.65;11.73;;;15.60;99.90;;;;;;4987854;28;20041;-80
2021/05/15 10:12:20;;;;;;;25.58;15.13;;;15.90;99.90;;;;;;4987266;28;20026;-80
2021/05/15 10:14:46;;;;;;;18.73;12.50;;;15.20;99.90;;;;;;4971570;28;20038;-80
2021/05/15 10:17:12;;;;;;;15.23;10.18;;;15.70;99.90;;;;;;4987079;28;20034;-79
2021/05/15 10:19:38;;;;;;;15.88;11.65;;;15.70;99.90;;;;;;4987155;28;20046;-81
2021/05/15 10:22:04;;;;;;;15.50;11.52;;;15.40;99.90;;;;;;4987275;28;20462;-79
2021/05/15 10:24:33;;;;;;;17.13;12.05;;;16.00;99.90;;;;;;4967566;28;20093;-81
2021/05/15 10:27:04;;;;;;;19.67;12.68;;;15.60;99.90;;;;;;4968311;28;20030;-79
2021/05/15 10:29:46;;;;;;;16.17;11.35;;;15.80;99.90;;;;;;4968339;28;20061;-79
2021/05/15 10:32:15;;;;;;;15.40;10.43;;;15.70;99.90;;;;;;4967868;28;20031;-79
2021/05/15 10:34:45;;;;;;;16.55;11.02;;;16.10;99.90;;;;;;4988479;28;20054;-79
2021/05/15 10:37:34;;;;;;;17.35;11.15;;;16.90;99.90;;;;;;4987098;28;20445;-80
2021/05/15 10:40:25;;;;;;;18.03;12.87;;;16.50;99.90;;;;;;4989291;28;20417;-81
2021/05/15 10:43:02;;;;;;;16.35;10.95;;;15.90;99.90;;;;;;5005073;28;20127;-77
2021/05/15 10:45:41;;;;;;;13.10;9.73;;;16.60;99.90;;;;;;5005567;28;20466;-79
2021/05/15 10:48:24;;;;;;;14.05;9.05;;;16.30;99.90;;;;;;4985449;28;20032;-79
2021/05/15 10:50:56;;;;;;;15.02;10.13;;;16.50;99.90;;;;;;5008134;28;20034;-80
2021/05/15 10:53:25;;;;;;;14.68;10.05;;;16.30;99.90;;;;;;4974267;28;20117;-79
2021/05/15 10:56:13;;;;;;;9.55;7.45;;;17.00;99.90;;;;;;4990680;28;20057;-79
2021/05/15 10:58:51;;;;;;;15.38;9.48;;;17.20;99.90;;;;;;5008080;28;20113;-79
2021/05/15 11:01:19;;;;;;;17.40;9.80;;;17.20;99.90;;;;;;4990743;28;20030;-79
2021/05/15 11:03:46;;;;;;;21.00;11.63;;;17.40;99.90;;;;;;4990453;28;20035;-80
2021/05/15 11:06:14;;;;;;;25.80;14.20;;;17.30;99.90;;;;;;4974703;28;20030;-82
2021/05/15 11:08:41;;;;;;;19.00;12.60;;;17.20;99.90;;;;;;5006405;28;20050;-82
2021/05/15 11:11:11;;;;;;;18.02;10.93;;;17.00;99.90;;;;;;4990273;28;20129;-79
2021/05/15 11:13:50;;;;;;;15.20;10.63;;;17.20;99.90;;;;;;5007795;28;20122;-80
2021/05/15 11:16:29;;;;;;;13.60;9.98;;;16.80;99.90;;;;;;4973905;28;20056;-82
2021/05/15 11:19:05;;;;;;;17.23;9.07;;;16.50;99.90;;;;;;5006083;28;20034;-80
2021/05/15 11:21:35;;;;;;;20.23;13.15;;;16.80;99.90;;;;;;4988055;28;20039;-81
2021/05/15 11:24:01;;;;;;;;;;;16.90;99.90;;;;;;4982243;28;20402;-83
2021/05/15 11:26:48;;;;;;;18.13;12.20;;;17.60;99.90;;;;;;5007708;28;20277;-81
2021/05/15 11:29:14;;;;;;;15.65;11.02;;;17.20;99.90;;;;;;4990190;28;20030;-82
2021/05/15 11:31:41;;;;;;;12.88;8.98;;;17.40;99.90;;;;;;4990231;28;20069;-83
2021/05/15 11:34:15;;;;;;;12.60;8.45;;;17.50;99.90;;;;;;4989865;28;20126;-82
2021/05/15 11:36:44;;;;;;;17.23;11.57;;;17.80;99.90;;;;;;4989758;28;20038;-82
2021/05/15 11:39:10;;;;;;;16.27;11.00;;;16.90;99.90;;;;;;4989728;28;20093;-81
2021/05/15 11:41:39;;;;;;;16.70;11.75;;;16.80;99.90;;;;;;4973671;28;20026;-84
2021/05/15 11:44:05;;;;;;;17.23;11.13;;;16.20;99.90;;;;;;4989426;28;20037;-80
2021/05/15 11:46:31;;;;;;;16.95;11.27;;;16.10;99.90;;;;;;4973166;28;20065;-81
2021/05/15 11:48:57;;;;;;;15.35;10.88;;;15.90;99.90;;;;;;5007024;28;20034;-81
2021/05/15 11:51:23;;;;;;;9.68;5.05;;;15.80;99.90;;;;;;4992216;28;20034;-81
2021/05/15 11:53:51;;;;;;;10.35;2.90;;;15.10;99.90;;;;;;5007041;28;20041;-81
2021/05/15 11:56:20;;;;;;;2.30;0.85;;;14.70;99.90;;;;;;5005966;28;20086;-82
2021/05/15 11:58:46;;;;;;;2.42;0.55;;;14.80;99.90;;;;;;4989862;28;20433;-82
2021/05/15 12:01:22;;;;;;;0.90;0.30;;;14.70;99.90;;;;;;5007594;28;20022;-86
2021/05/15 12:03:48;;;;;;;1.30;0.28;;;14.70;99.90;;;;;;5005930;28;20041;-85
2021/05/15 12:06:15;;;;;;;1.27;0.30;;;14.30;99.90;;;;;;4989147;28;20034;-83
2021/05/15 12:08:42;;;;;;;1.92;0.28;;;14.20;99.90;;;;;;4972810;28;20051;-82
2021/05/15 12:11:08;;;;;;;2.15;0.20;;;14.40;99.90;;;;;;4987686;28;20403;-82
2021/05/15 12:13:34;;;;;;;0.73;0.30;;;14.30;99.90;;;;;;4983098;28;20034;-82
2021/05/15 12:16:04;;;;;;;1.05;0.20;;;14.40;99.90;;;;;;5006443;28;20034;-82
2021/05/15 12:18:30;;;;;;;2.85;0.32;;;13.80;99.90;;;;;;5005754;28;20035;-84
2021/05/15 12:20:56;;;;;;;0.90;0.30;;;13.30;99.90;;;;;;4989493;28;20041;-84
2021/05/15 12:23:23;;;;;;;0.60;0.20;;;13.50;99.90;;;;;;4989543;28;20487;-84
2021/05/15 12:26:08;;;;;;;1.08;0.30;;;13.70;99.90;;;;;;4973882;28;20042;-85
2021/05/15 12:28:48;;;;;;;1.08;0.30;;;13.30;99.90;;;;;;5007432;28;20045;-88
2021/05/15 12:31:25;;;;;;;;;;;13.40;99.90;;;;;;4990153;28;20035;-90
2021/05/15 12:33:57;;;;;;;1.13;0.40;;;13.50;99.90;;;;;;4989681;28;19921;-85
2021/05/15 12:36:30;;;;;;;2.83;0.50;;;13.90;99.90;;;;;;4989377;28;20037;-85
2021/05/15 12:38:58;;;;;;;1.85;0.50;;;14.10;99.90;;;;;;5006174;28;20101;-86
2021/05/15 12:41:31;;;;;;;0.70;0.20;;;14.60;99.90;;;;;;4989623;28;20109;-87
2021/05/15 12:44:17;;;;;;;2.17;0.17;;;14.80;99.90;;;;;;5007051;28;20030;-85